sensor_id;sensor_type;location;lat;lon;timestamp;pressure;altitude;pressure_sealevel;temperature;humidity
26178;BME280;13924;47.670;10.310;2023-07-08T00:00:38;93470;;;21.2;100.0
26178;BME280;13924;47.670;10.310;2023-07-08T00:15:39;93450;;;19.8;100.0
26178;BME280;13924;47.670;10.310;2023-07-08T00:30:38;93470;;;18.6;100.0
26178;BME280;13924;47.670;10.310;2023-07-08T00:45:43;93480;;;19.2;100.0
26178;BME280;13924;47.670;10.310;2023-07-08T01:00:40;93480;;;18.9;100.0
26178;BME280;13924;47.670;10.310;2023-07-08T01:01:28;93470;;;18.9;100.0
26178;BME280;13924;47.670;10.310;2023-07-08T01:15:42;93480;;;18.5;100.0
26178;BME280;13924;47.670;10.310;2023-07-08T01:30:43;93480;;;18.5;100.0
26178;BME280;13924;47.670;10.310;2023-07-08T01:45:43;93450;;;17.9;100.0
26178;BME280;13924;47.670;10.310;2023-07-08T02:00:44;93450;;;17.9;100.0
26178;BME280;13924;47.670;10.310;2023-07-08T02:15:43;93450;;;18.4;100.0
26178;BME280;13924;47.670;10.310;2023-07-08T02:30:43;93460;;;18.4;100.0
26178;BME280;13924;47.670;10.310;2023-07-08T02:45:45;93500;;;17.7;100.0
26178;BME280;13924;47.670;10.310;2023-07-08T03:00:44;93530;;;17.3;100.0
26178;BME280;13924;47.670;10.310;2023-07-08T03:15:45;93520;;;18.5;100.0
26178;BME280;13924;47.670;10.310;2023-07-08T03:27:20;93530;;;19.3;100.0
26178;BME280;13924;47.670;10.310;2023-07-08T03:42:22;93530;;;19.8;100.0
26178;BME280;13924;47.670;10.310;2023-07-08T03:57:21;93530;;;20.0;100.0
26178;BME280;13924;47.670;10.310;2023-07-08T04:12:22;93530;;;19.1;100.0
26178;BME280;13924;47.670;10.310;2023-07-08T04:27:23;93550;;;18.9;100.0
26178;BME280;13924;47.670;10.310;2023-07-08T04:42:24;93530;;;18.8;100.0
26178;BME280;13924;47.670;10.310;2023-07-08T04:57:28;93530;;;18.8;100.0
26178;BME280;13924;47.670;10.310;2023-07-08T05:12:27;93560;;;18.6;100.0
26178;BME280;13924;47.670;10.310;2023-07-08T05:27:28;93560;;;18.6;100.0
26178;BME280;13924;47.670;10.310;2023-07-08T05:42:27;93560;;;19.3;100.0
26178;BME280;13924;47.670;10.310;2023-07-08T05:57:28;93560;;;19.3;100.0
26178;BME280;13924;47.670;10.310;2023-07-08T06:12:29;93580;;;20.4;100.0
26178;BME280;13924;47.670;10.310;2023-07-08T06:27:30;93580;;;20.4;100.0
26178;BME280;13924;47.670;10.310;2023-07-08T06:42:30;93610;;;20.7;100.0
26178;BME280;13924;47.670;10.310;2023-07-08T06:57:30;93620;;;20.7;100.0
26178;BME280;13924;47.670;10.310;2023-07-08T07:12:31;93630;;;21.3;100.0
26178;BME280;13924;47.670;10.310;2023-07-08T07:27:31;93640;;;21.5;100.0
26178;BME280;13924;47.670;10.310;2023-07-08T07:42:32;93640;;;22.2;100.0
26178;BME280;13924;47.670;10.310;2023-07-08T07:57:33;93650;;;22.5;100.0
26178;BME280;13924;47.670;10.310;2023-07-08T08:12:33;93650;;;22.8;97.7
26178;BME280;13924;47.670;10.310;2023-07-08T08:27:35;93650;;;23.1;93.8
26178;BME280;13924;47.670;10.310;2023-07-08T08:42:42;93650;;;23.5;87.0
26178;BME280;13924;47.670;10.310;2023-07-08T08:57:42;93650;;;23.7;83.7
26178;BME280;13924;47.670;10.310;2023-07-08T09:12:36;93650;;;24.0;88.6
26178;BME280;13924;47.670;10.310;2023-07-08T09:27:36;93670;;;24.1;72.3
26178;BME280;13924;47.670;10.310;2023-07-08T09:42:37;93660;;;24.1;87.5
26178;BME280;13924;47.670;10.310;2023-07-08T09:57:39;93660;;;24.1;87.5
26178;BME280;13924;47.670;10.310;2023-07-08T10:12:39;93650;;;24.5;79.0
26178;BME280;13924;47.670;10.310;2023-07-08T10:27:47;93650;;;26.0;72.1
26178;BME280;13924;47.670;10.310;2023-07-08T10:42:54;93650;;;26.1;75.3
26178;BME280;13924;47.670;10.310;2023-07-08T10:58:07;93660;;;27.0;64.0
26178;BME280;13924;47.670;10.310;2023-07-08T11:12:46;93650;;;27.4;69.4
26178;BME280;13924;47.670;10.310;2023-07-08T11:27:43;93650;;;28.0;71.2
26178;BME280;13924;47.670;10.310;2023-07-08T11:42:44;93640;;;29.2;59.8
26178;BME280;13924;47.670;10.310;2023-07-08T11:57:43;93640;;;29.4;54.5
26178;BME280;13924;47.670;10.310;2023-07-08T12:12:48;93640;;;29.4;54.5
26178;BME280;13924;47.670;10.310;2023-07-08T12:27:48;93650;;;29.7;54.4
26178;BME280;13924;47.670;10.310;2023-07-08T12:42:48;93670;;;30.3;53.4
26178;BME280;13924;47.670;10.310;2023-07-08T12:57:47;93660;;;32.5;42.3
26178;BME280;13924;47.670;10.310;2023-07-08T13:12:50;93670;;;31.2;41.5
26178;BME280;13924;47.670;10.310;2023-07-08T13:27:55;93670;;;29.2;51.5
26178;BME280;13924;47.670;10.310;2023-07-08T13:42:51;93670;;;29.2;51.5
26178;BME280;13924;47.670;10.310;2023-07-08T13:57:58;93670;;;28.9;56.3
26178;BME280;13924;47.670;10.310;2023-07-08T14:12:54;93660;;;29.8;55.6
26178;BME280;13924;47.670;10.310;2023-07-08T14:27:50;93650;;;32.3;45.0
26178;BME280;13924;47.670;10.310;2023-07-08T14:42:57;93650;;;32.3;45.0
26178;BME280;13924;47.670;10.310;2023-07-08T14:57:52;93650;;;31.0;45.7
26178;BME280;13924;47.670;10.310;2023-07-08T15:12:50;93640;;;30.8;49.4
26178;BME280;13924;47.670;10.310;2023-07-08T15:27:54;93620;;;30.1;47.0
26178;BME280;13924;47.670;10.310;2023-07-08T15:42:55;93620;;;29.8;47.9
26178;BME280;13924;47.670;10.310;2023-07-08T15:57:56;93610;;;31.0;43.6
26178;BME280;13924;47.670;10.310;2023-07-08T16:12:53;93610;;;30.5;44.6
26178;BME280;13924;47.670;10.310;2023-07-08T16:27:54;93600;;;29.9;49.1
26178;BME280;13924;47.670;10.310;2023-07-08T16:42:56;93600;;;30.0;55.9
26178;BME280;13924;47.670;10.310;2023-07-08T16:57:55;93590;;;30.2;51.7
26178;BME280;13924;47.670;10.310;2023-07-08T17:12:55;93580;;;30.0;52.3
26178;BME280;13924;47.670;10.310;2023-07-08T17:27:56;93590;;;29.9;51.2
26178;BME280;13924;47.670;10.310;2023-07-08T17:43:00;93600;;;29.7;51.7
26178;BME280;13924;47.670;10.310;2023-07-08T17:57:58;93600;;;29.0;49.8
26178;BME280;13924;47.670;10.310;2023-07-08T18:13:12;93590;;;27.9;54.1
26178;BME280;13924;47.670;10.310;2023-07-08T18:27:59;93590;;;27.6;64.6
26178;BME280;13924;47.670;10.310;2023-07-08T18:43:02;93610;;;27.5;86.5
26178;BME280;13924;47.670;10.310;2023-07-08T18:58:00;93610;;;27.0;94.3
26178;BME280;13924;47.670;10.310;2023-07-08T19:13:11;93610;;;27.0;94.3
26178;BME280;13924;47.670;10.310;2023-07-08T19:28:05;93630;;;26.9;100.0
26178;BME280;13924;47.670;10.310;2023-07-08T19:43:03;93680;;;26.3;100.0
26178;BME280;13924;47.670;10.310;2023-07-08T19:58:03;93680;;;25.6;100.0
26178;BME280;13924;47.670;10.310;2023-07-08T20:13:09;93690;;;25.0;100.0
26178;BME280;13924;47.670;10.310;2023-07-08T20:28:07;93690;;;25.0;100.0
26178;BME280;13924;47.670;10.310;2023-07-08T20:43:12;93700;;;25.4;100.0
26178;BME280;13924;47.670;10.310;2023-07-08T20:58:13;93710;;;24.7;100.0
26178;BME280;13924;47.670;10.310;2023-07-08T21:13:08;93730;;;24.2;100.0
26178;BME280;13924;47.670;10.310;2023-07-08T21:28:22;93730;;;24.2;100.0
26178;BME280;13924;47.670;10.310;2023-07-08T21:43:15;93730;;;24.3;100.0
26178;BME280;13924;47.670;10.310;2023-07-08T21:58:10;93740;;;23.1;100.0
26178;BME280;13924;47.670;10.310;2023-07-08T22:00:40;93740;;;23.1;100.0
26178;BME280;13924;47.670;10.310;2023-07-08T22:15:42;93740;;;23.0;100.0
26178;BME280;13924;47.670;10.310;2023-07-08T22:30:39;93730;;;23.9;100.0
26178;BME280;13924;47.670;10.310;2023-07-08T22:45:55;93740;;;23.4;100.0
26178;BME280;13924;47.670;10.310;2023-07-08T23:00:49;93750;;;23.4;100.0
26178;BME280;13924;47.670;10.310;2023-07-08T23:15:41;93760;;;23.6;100.0
26178;BME280;13924;47.670;10.310;2023-07-08T23:30:38;93770;;;22.5;100.0
26178;BME280;13924;47.670;10.310;2023-07-08T23:45:45;93770;;;22.5;100.0
